sensor_id;sensor_type;location;lat;lon;timestamp;pressure;altitude;pressure_sealevel;temperature;humidity
31357;BME280;60001;48.404;11.738;2024-02-14T00:01:17;96740.03;;;2.36;80.58
31357;BME280;60001;48.404;11.738;2024-02-14T00:02:50;96738.31;;;2.43;80.07
31357;BME280;60001;48.404;11.738;2024-02-14T00:04:20;96744.69;;;2.41;80.25
31357;BME280;60001;48.404;11.738;2024-02-14T00:05:52;96746.78;;;2.24;80.95
31357;BME280;60001;48.404;11.738;2024-02-14T00:07:26;96759.94;;;2.16;81.23
31357;BME280;60001;48.404;11.738;2024-02-14T00:08:57;96727.38;;;2.05;81.88
31357;BME280;60001;48.404;11.738;2024-02-14T00:10:32;96756.94;;;2.19;81.54
31357;BME280;60001;48.404;11.738;2024-02-14T00:12:03;96759.00;;;2.24;82.05
31357;BME280;60001;48.404;11.738;2024-02-14T00:13:35;96759.41;;;2.27;81.36
31357;BME280;60001;48.404;11.738;2024-02-14T00:15:07;96755.06;;;2.34;81.17
31357;BME280;60001;48.404;11.738;2024-02-14T00:16:40;96757.41;;;2.29;81.30
31357;BME280;60001;48.404;11.738;2024-02-14T00:18:11;96762.88;;;2.34;81.69
31357;BME280;60001;48.404;11.738;2024-02-14T00:19:43;96766.13;;;2.43;80.60
31357;BME280;60001;48.404;11.738;2024-02-14T00:21:14;96762.13;;;2.40;80.68
31357;BME280;60001;48.404;11.738;2024-02-14T00:22:46;96753.88;;;2.37;80.65
31357;BME280;60001;48.404;11.738;2024-02-14T00:24:18;96753.44;;;2.33;80.55
31357;BME280;60001;48.404;11.738;2024-02-14T00:25:49;96753.19;;;2.28;80.86
31357;BME280;60001;48.404;11.738;2024-02-14T00:27:21;96752.19;;;2.23;81.00
31357;BME280;60001;48.404;11.738;2024-02-14T00:28:52;96748.88;;;2.14;82.20
31357;BME280;60001;48.404;11.738;2024-02-14T00:30:23;96765.13;;;2.16;82.12
31357;BME280;60001;48.404;11.738;2024-02-14T00:31:56;96757.06;;;2.11;83.12
31357;BME280;60001;48.404;11.738;2024-02-14T00:33:31;96750.38;;;2.02;83.08
31357;BME280;60001;48.404;11.738;2024-02-14T00:35:01;96753.03;;;2.08;83.87
31357;BME280;60001;48.404;11.738;2024-02-14T00:36:33;96754.28;;;2.12;83.41
31357;BME280;60001;48.404;11.738;2024-02-14T00:38:04;96750.31;;;2.16;83.13
31357;BME280;60001;48.404;11.738;2024-02-14T00:39:37;96754.53;;;2.17;83.16
31357;BME280;60001;48.404;11.738;2024-02-14T00:41:07;96757.59;;;2.28;83.14
31357;BME280;60001;48.404;11.738;2024-02-14T00:42:39;96757.06;;;2.32;83.16
31357;BME280;60001;48.404;11.738;2024-02-14T00:44:10;96754.69;;;2.37;82.35
31357;BME280;60001;48.404;11.738;2024-02-14T00:45:42;96759.09;;;2.37;82.45
31357;BME280;60001;48.404;11.738;2024-02-14T00:47:14;96747.44;;;2.33;82.41
31357;BME280;60001;48.404;11.738;2024-02-14T00:48:46;96766.34;;;2.41;82.38
31357;BME280;60001;48.404;11.738;2024-02-14T00:50:17;96760.31;;;2.41;82.34
31357;BME280;60001;48.404;11.738;2024-02-14T00:51:49;96764.22;;;2.52;82.67
31357;BME280;60001;48.404;11.738;2024-02-14T00:53:20;96764.84;;;2.54;82.04
31357;BME280;60001;48.404;11.738;2024-02-14T00:54:52;96755.72;;;2.43;82.91
31357;BME280;60001;48.404;11.738;2024-02-14T00:56:23;96764.31;;;2.37;83.37
31357;BME280;60001;48.404;11.738;2024-02-14T00:57:55;96725.44;;;2.14;82.81
31357;BME280;60001;48.404;11.738;2024-02-14T00:59:26;96762.50;;;2.37;83.19
31357;BME280;60001;48.404;11.738;2024-02-14T01:00:58;96766.72;;;2.38;82.82
31357;BME280;60001;48.404;11.738;2024-02-14T01:02:31;96765.72;;;2.39;82.64
31357;BME280;60001;48.404;11.738;2024-02-14T01:04:02;96764.31;;;2.37;82.76
31357;BME280;60001;48.404;11.738;2024-02-14T01:05:34;96770.69;;;2.34;83.12
31357;BME280;60001;48.404;11.738;2024-02-14T01:07:04;96767.84;;;2.29;83.50
31357;BME280;60001;48.404;11.738;2024-02-14T01:08:39;96762.88;;;2.34;83.52
31357;BME280;60001;48.404;11.738;2024-02-14T01:10:11;96762.94;;;2.41;83.05
31357;BME280;60001;48.404;11.738;2024-02-14T01:11:43;96765.53;;;2.41;83.00
31357;BME280;60001;48.404;11.738;2024-02-14T01:13:14;96766.72;;;2.38;83.57
31357;BME280;60001;48.404;11.738;2024-02-14T01:14:46;96765.06;;;2.31;83.80
31357;BME280;60001;48.404;11.738;2024-02-14T01:16:18;96751.78;;;2.26;83.79
31357;BME280;60001;48.404;11.738;2024-02-14T01:17:50;96771.06;;;2.31;83.36
31357;BME280;60001;48.404;11.738;2024-02-14T01:19:22;96772.88;;;2.31;83.86
31357;BME280;60001;48.404;11.738;2024-02-14T01:20:54;96771.94;;;2.38;83.37
31357;BME280;60001;48.404;11.738;2024-02-14T01:22:26;96768.13;;;2.41;83.99
31357;BME280;60001;48.404;11.738;2024-02-14T01:23:57;96769.53;;;2.37;83.85
31357;BME280;60001;48.404;11.738;2024-02-14T01:25:29;96772.75;;;2.39;83.93
31357;BME280;60001;48.404;11.738;2024-02-14T01:27:00;96775.16;;;2.40;83.94
31357;BME280;60001;48.404;11.738;2024-02-14T01:28:33;96766.97;;;2.43;83.85
31357;BME280;60001;48.404;11.738;2024-02-14T01:30:05;96768.38;;;2.46;83.34
31357;BME280;60001;48.404;11.738;2024-02-14T01:31:37;96769.38;;;2.45;83.84
31357;BME280;60001;48.404;11.738;2024-02-14T01:33:10;96771.84;;;2.53;83.88
31357;BME280;60001;48.404;11.738;2024-02-14T01:34:42;96772.66;;;2.54;83.57
31357;BME280;60001;48.404;11.738;2024-02-14T01:36:14;96769.66;;;2.57;83.89
31357;BME280;60001;48.404;11.738;2024-02-14T01:37:47;96764.63;;;2.55;83.23
31357;BME280;60001;48.404;11.738;2024-02-14T01:39:17;96765.63;;;2.54;83.53
31357;BME280;60001;48.404;11.738;2024-02-14T01:40:49;96763.84;;;2.55;83.68
31357;BME280;60001;48.404;11.738;2024-02-14T01:42:20;96762.22;;;2.54;83.79
31357;BME280;60001;48.404;11.738;2024-02-14T01:43:52;96766.38;;;2.48;84.19
31357;BME280;60001;48.404;11.738;2024-02-14T01:45:23;96767.44;;;2.54;84.04
31357;BME280;60001;48.404;11.738;2024-02-14T01:46:55;96759.88;;;2.59;83.76
31357;BME280;60001;48.404;11.738;2024-02-14T01:48:29;96763.09;;;2.61;84.23
31357;BME280;60001;48.404;11.738;2024-02-14T01:50:01;96759.41;;;2.55;83.95
31357;BME280;60001;48.404;11.738;2024-02-14T01:51:35;96752.59;;;2.54;84.46
31357;BME280;60001;48.404;11.738;2024-02-14T01:53:07;96771.50;;;2.63;84.07
31357;BME280;60001;48.404;11.738;2024-02-14T01:54:39;96763.69;;;2.63;84.46
31357;BME280;60001;48.404;11.738;2024-02-14T01:56:10;96763.72;;;2.69;83.53
31357;BME280;60001;48.404;11.738;2024-02-14T01:57:43;96767.28;;;2.62;84.40
31357;BME280;60001;48.404;11.738;2024-02-14T01:59:15;96767.16;;;2.70;83.96
31357;BME280;60001;48.404;11.738;2024-02-14T02:00:48;96769.75;;;2.70;83.33
31357;BME280;60001;48.404;11.738;2024-02-14T02:02:19;96769.59;;;2.71;83.41
31357;BME280;60001;48.404;11.738;2024-02-14T02:03:53;96766.19;;;2.78;83.44
31357;BME280;60001;48.404;11.738;2024-02-14T02:05:24;96771.44;;;2.84;82.90
31357;BME280;60001;48.404;11.738;2024-02-14T02:06:56;96773.50;;;2.89;82.53
31357;BME280;60001;48.404;11.738;2024-02-14T02:08:27;96771.50;;;2.91;82.71
31357;BME280;60001;48.404;11.738;2024-02-14T02:09:59;96770.69;;;2.90;83.06
31357;BME280;60001;48.404;11.738;2024-02-14T02:11:30;96775.53;;;2.93;82.86
31357;BME280;60001;48.404;11.738;2024-02-14T02:13:13;96769.88;;;2.90;82.79
31357;BME280;60001;48.404;11.738;2024-02-14T02:14:46;96769.03;;;2.83;83.28
31357;BME280;60001;48.404;11.738;2024-02-14T02:16:17;96774.50;;;2.88;83.12
31357;BME280;60001;48.404;11.738;2024-02-14T02:17:49;96760.22;;;2.84;82.50
31357;BME280;60001;48.404;11.738;2024-02-14T02:19:25;96773.28;;;2.90;82.37
31357;BME280;60001;48.404;11.738;2024-02-14T02:20:55;96771.88;;;2.88;83.00
31357;BME280;60001;48.404;11.738;2024-02-14T02:22:27;96764.63;;;2.83;82.85
31357;BME280;60001;48.404;11.738;2024-02-14T02:24:04;96774.91;;;2.91;82.79
31357;BME280;60001;48.404;11.738;2024-02-14T02:25:37;96774.06;;;2.84;82.18
31357;BME280;60001;48.404;11.738;2024-02-14T02:27:08;96770.88;;;2.89;82.79
31357;BME280;60001;48.404;11.738;2024-02-14T02:28:40;96769.13;;;2.96;82.03
31357;BME280;60001;48.404;11.738;2024-02-14T02:30:11;96769.72;;;2.98;81.71
31357;BME280;60001;48.404;11.738;2024-02-14T02:31:44;96761.50;;;2.94;82.42
31357;BME280;60001;48.404;11.738;2024-02-14T02:33:15;96765.47;;;2.90;82.16
31357;BME280;60001;48.404;11.738;2024-02-14T02:34:46;96772.94;;;2.93;82.97
31357;BME280;60001;48.404;11.738;2024-02-14T02:36:17;96775.91;;;2.90;82.80
31357;BME280;60001;48.404;11.738;2024-02-14T02:37:49;96782.16;;;2.96;83.00
31357;BME280;60001;48.404;11.738;2024-02-14T02:39:22;96776.56;;;2.99;82.02
31357;BME280;60001;48.404;11.738;2024-02-14T02:40:54;96777.19;;;3.01;82.05
31357;BME280;60001;48.404;11.738;2024-02-14T02:42:24;96765.31;;;2.98;81.85
31357;BME280;60001;48.404;11.738;2024-02-14T02:43:56;96776.03;;;3.10;81.78
31357;BME280;60001;48.404;11.738;2024-02-14T02:45:27;96779.47;;;3.17;82.08
31357;BME280;60001;48.404;11.738;2024-02-14T02:46:59;96781.25;;;3.10;82.75
31357;BME280;60001;48.404;11.738;2024-02-14T02:48:31;96779.28;;;3.19;81.75
31357;BME280;60001;48.404;11.738;2024-02-14T02:50:03;96779.47;;;3.17;82.16
31357;BME280;60001;48.404;11.738;2024-02-14T02:51:34;96778.28;;;3.13;82.31
31357;BME280;60001;48.404;11.738;2024-02-14T02:53:06;96775.03;;;3.11;82.17
31357;BME280;60001;48.404;11.738;2024-02-14T02:54:39;96779.25;;;3.12;82.59
31357;BME280;60001;48.404;11.738;2024-02-14T02:56:11;96770.81;;;3.10;82.66
31357;BME280;60001;48.404;11.738;2024-02-14T02:57:43;96775.78;;;3.05;83.13
31357;BME280;60001;48.404;11.738;2024-02-14T02:59:15;96783.22;;;3.01;83.07
31357;BME280;60001;48.404;11.738;2024-02-14T03:00:47;96770.31;;;2.93;83.67
31357;BME280;60001;48.404;11.738;2024-02-14T03:02:20;96777.50;;;2.91;83.39
31357;BME280;60001;48.404;11.738;2024-02-14T03:03:51;96772.09;;;2.86;83.95
31357;BME280;60001;48.404;11.738;2024-02-14T03:05:23;96773.72;;;2.94;84.17
31357;BME280;60001;48.404;11.738;2024-02-14T03:06:54;96770.13;;;2.95;83.95
31357;BME280;60001;48.404;11.738;2024-02-14T03:08:25;96772.13;;;2.93;84.03
31357;BME280;60001;48.404;11.738;2024-02-14T03:09:59;96767.91;;;2.98;83.35
31357;BME280;60001;48.404;11.738;2024-02-14T03:11:30;96772.78;;;3.01;83.12
31357;BME280;60001;48.404;11.738;2024-02-14T03:13:01;96771.19;;;3.07;83.30
31357;BME280;60001;48.404;11.738;2024-02-14T03:14:33;96767.97;;;3.05;83.47
31357;BME280;60001;48.404;11.738;2024-02-14T03:16:05;96769.69;;;2.91;84.13
31357;BME280;60001;48.404;11.738;2024-02-14T03:17:40;96767.06;;;2.91;83.73
31357;BME280;60001;48.404;11.738;2024-02-14T03:19:12;96765.31;;;2.98;83.72
31357;BME280;60001;48.404;11.738;2024-02-14T03:20:44;96765.56;;;3.03;83.30
31357;BME280;60001;48.404;11.738;2024-02-14T03:22:16;96774.44;;;3.16;83.28
31357;BME280;60001;48.404;11.738;2024-02-14T03:23:49;96770.25;;;3.15;83.15
31357;BME280;60001;48.404;11.738;2024-02-14T03:25:22;96776.66;;;3.19;82.56
31357;BME280;60001;48.404;11.738;2024-02-14T03:26:54;96773.44;;;3.17;82.83
31357;BME280;60001;48.404;11.738;2024-02-14T03:28:26;96768.66;;;3.20;81.89
31357;BME280;60001;48.404;11.738;2024-02-14T03:29:58;96765.22;;;3.20;81.56
31357;BME280;60001;48.404;11.738;2024-02-14T03:31:33;96767.44;;;3.16;81.76
31357;BME280;60001;48.404;11.738;2024-02-14T03:33:05;96775.41;;;3.08;81.75
31357;BME280;60001;48.404;11.738;2024-02-14T03:34:38;96773.41;;;3.10;81.34
31357;BME280;60001;48.404;11.738;2024-02-14T03:36:10;96765.56;;;3.03;81.73
31357;BME280;60001;48.404;11.738;2024-02-14T03:37:41;96775.97;;;3.03;80.93
31357;BME280;60001;48.404;11.738;2024-02-14T03:39:14;96780.31;;;2.90;81.96
31357;BME280;60001;48.404;11.738;2024-02-14T03:40:46;96765.78;;;2.74;82.04
31357;BME280;60001;48.404;11.738;2024-02-14T03:42:18;96772.59;;;2.75;82.75
31357;BME280;60001;48.404;11.738;2024-02-14T03:43:50;96768.78;;;2.78;82.08
31357;BME280;60001;48.404;11.738;2024-02-14T03:45:24;96771.00;;;2.74;82.46
31357;BME280;60001;48.404;11.738;2024-02-14T03:46:55;96774.97;;;2.70;83.07
31357;BME280;60001;48.404;11.738;2024-02-14T03:48:28;96773.00;;;2.72;82.31
31357;BME280;60001;48.404;11.738;2024-02-14T03:50:01;96777.56;;;2.70;82.69
31357;BME280;60001;48.404;11.738;2024-02-14T03:51:34;96771.16;;;2.66;82.89
31357;BME280;60001;48.404;11.738;2024-02-14T03:53:05;96780.13;;;2.63;82.89
31357;BME280;60001;48.404;11.738;2024-02-14T03:54:38;96769.53;;;2.65;82.33
31357;BME280;60001;48.404;11.738;2024-02-14T03:56:10;96768.28;;;2.61;82.82
31357;BME280;60001;48.404;11.738;2024-02-14T03:57:45;96766.94;;;2.65;83.07
31357;BME280;60001;48.404;11.738;2024-02-14T03:59:17;96772.66;;;2.54;82.78
31357;BME280;60001;48.404;11.738;2024-02-14T04:00:54;96768.81;;;2.50;83.17
31357;BME280;60001;48.404;11.738;2024-02-14T04:02:25;96778.41;;;2.49;83.37
31357;BME280;60001;48.404;11.738;2024-02-14T04:03:58;96776.00;;;2.47;83.87
31357;BME280;60001;48.404;11.738;2024-02-14T04:05:30;96781.09;;;2.56;83.18
31357;BME280;60001;48.404;11.738;2024-02-14T04:07:02;96773.22;;;2.49;83.03
31357;BME280;60001;48.404;11.738;2024-02-14T04:08:33;96781.97;;;2.41;83.84
31357;BME280;60001;48.404;11.738;2024-02-14T04:10:06;96776.50;;;2.36;83.67
31357;BME280;60001;48.404;11.738;2024-02-14T04:11:38;96772.13;;;2.37;84.01
31357;BME280;60001;48.404;11.738;2024-02-14T04:13:10;96772.75;;;2.39;84.17
31357;BME280;60001;48.404;11.738;2024-02-14T04:14:41;96768.53;;;2.38;83.47
31357;BME280;60001;48.404;11.738;2024-02-14T04:16:13;96775.34;;;2.39;83.71
31357;BME280;60001;48.404;11.738;2024-02-14T04:17:44;96765.47;;;2.34;83.69
31357;BME280;60001;48.404;11.738;2024-02-14T04:19:15;96771.94;;;2.38;84.11
31357;BME280;60001;48.404;11.738;2024-02-14T04:20:47;96769.94;;;2.40;83.20
31357;BME280;60001;48.404;11.738;2024-02-14T04:22:19;96768.34;;;2.39;83.63
31357;BME280;60001;48.404;11.738;2024-02-14T04:23:51;96766.78;;;2.45;83.67
31357;BME280;60001;48.404;11.738;2024-02-14T04:25:23;96769.53;;;2.37;83.42
31357;BME280;60001;48.404;11.738;2024-02-14T04:26:55;96760.66;;;2.31;83.46
31357;BME280;60001;48.404;11.738;2024-02-14T04:28:27;96765.88;;;2.31;83.51
31357;BME280;60001;48.404;11.738;2024-02-14T04:29:59;96771.13;;;2.38;83.79
31357;BME280;60001;48.404;11.738;2024-02-14T04:31:31;96768.34;;;2.39;83.18
31357;BME280;60001;48.404;11.738;2024-02-14T04:33:02;96770.13;;;2.39;83.64
31357;BME280;60001;48.404;11.738;2024-02-14T04:34:34;96762.69;;;2.36;83.59
31357;BME280;60001;48.404;11.738;2024-02-14T04:36:08;96771.94;;;2.38;84.49
31357;BME280;60001;48.404;11.738;2024-02-14T04:37:41;96776.09;;;2.33;84.46
31357;BME280;60001;48.404;11.738;2024-02-14T04:39:16;96764.72;;;2.40;84.38
31357;BME280;60001;48.404;11.738;2024-02-14T04:40:47;96774.00;;;2.50;83.91
31357;BME280;60001;48.404;11.738;2024-02-14T04:42:20;96767.19;;;2.48;84.41
31357;BME280;60001;48.404;11.738;2024-02-14T04:43:51;96771.78;;;2.46;84.62
31357;BME280;60001;48.404;11.738;2024-02-14T04:45:23;96754.09;;;2.42;84.42
31357;BME280;60001;48.404;11.738;2024-02-14T04:46:54;96767.69;;;2.59;84.57
31357;BME280;60001;48.404;11.738;2024-02-14T04:48:26;96763.13;;;2.67;84.30
31357;BME280;60001;48.404;11.738;2024-02-14T04:49:58;96760.91;;;2.64;84.57
31357;BME280;60001;48.404;11.738;2024-02-14T04:51:30;96765.94;;;2.66;84.20
31357;BME280;60001;48.404;11.738;2024-02-14T04:53:02;96760.72;;;2.66;84.40
31357;BME280;60001;48.404;11.738;2024-02-14T04:54:33;96766.53;;;2.68;84.29
31357;BME280;60001;48.404;11.738;2024-02-14T04:56:05;96769.78;;;2.77;84.08
31357;BME280;60001;48.404;11.738;2024-02-14T04:57:38;96769.84;;;2.83;83.69
31357;BME280;60001;48.404;11.738;2024-02-14T04:59:10;96775.91;;;2.90;83.94
31357;BME280;60001;48.404;11.738;2024-02-14T05:00:41;96766.06;;;2.86;83.83
31357;BME280;60001;48.404;11.738;2024-02-14T05:02:12;96767.03;;;2.85;83.84
31357;BME280;60001;48.404;11.738;2024-02-14T05:03:43;96765.88;;;2.87;83.94
31357;BME280;60001;48.404;11.738;2024-02-14T05:05:15;96756.59;;;2.85;84.13
31357;BME280;60001;48.404;11.738;2024-02-14T05:06:46;96768.28;;;2.89;84.40
31357;BME280;60001;48.404;11.738;2024-02-14T05:08:18;96766.09;;;2.92;84.08
31357;BME280;60001;48.404;11.738;2024-02-14T05:09:49;96765.72;;;2.95;83.95
31357;BME280;60001;48.404;11.738;2024-02-14T05:11:22;96767.72;;;2.93;83.72
31357;BME280;60001;48.404;11.738;2024-02-14T05:12:55;96767.06;;;2.91;83.66
31357;BME280;60001;48.404;11.738;2024-02-14T05:14:26;96768.06;;;2.90;84.19
31357;BME280;60001;48.404;11.738;2024-02-14T05:16:02;96771.72;;;2.96;83.83
31357;BME280;60001;48.404;11.738;2024-02-14T05:17:34;96766.16;;;3.06;82.87
31357;BME280;60001;48.404;11.738;2024-02-14T05:19:06;96755.13;;;3.03;83.76
31357;BME280;60001;48.404;11.738;2024-02-14T05:20:37;96769.19;;;3.09;82.82
31357;BME280;60001;48.404;11.738;2024-02-14T05:22:09;96773.84;;;3.14;82.83
31357;BME280;60001;48.404;11.738;2024-02-14T05:23:40;96776.66;;;3.19;83.08
31357;BME280;60001;48.404;11.738;2024-02-14T05:25:12;96774.72;;;3.27;83.15
31357;BME280;60001;48.404;11.738;2024-02-14T05:26:43;96778.53;;;3.32;82.77
31357;BME280;60001;48.404;11.738;2024-02-14T05:28:16;96777.97;;;3.36;82.04
31357;BME280;60001;48.404;11.738;2024-02-14T05:29:49;96770.31;;;3.28;81.44
31357;BME280;60001;48.404;11.738;2024-02-14T05:31:21;96776.53;;;3.27;81.64
31357;BME280;60001;48.404;11.738;2024-02-14T05:32:52;96775.72;;;3.33;81.68
31357;BME280;60001;48.404;11.738;2024-02-14T05:34:24;96776.97;;;3.37;81.26
31357;BME280;60001;48.404;11.738;2024-02-14T05:35:55;96761.25;;;3.24;81.24
31357;BME280;60001;48.404;11.738;2024-02-14T05:37:27;96766.66;;;3.22;81.33
31357;BME280;60001;48.404;11.738;2024-02-14T05:38:57;96761.25;;;3.24;82.00
31357;BME280;60001;48.404;11.738;2024-02-14T05:40:30;96768.06;;;3.25;81.40
31357;BME280;60001;48.404;11.738;2024-02-14T05:42:00;96766.47;;;3.24;81.22
31357;BME280;60001;48.404;11.738;2024-02-14T05:43:34;96769.69;;;3.33;81.20
31357;BME280;60001;48.404;11.738;2024-02-14T05:45:06;96762.31;;;3.36;80.91
31357;BME280;60001;48.404;11.738;2024-02-14T05:46:40;96751.47;;;3.39;80.27
31357;BME280;60001;48.404;11.738;2024-02-14T05:48:11;96762.72;;;3.46;80.56
31357;BME280;60001;48.404;11.738;2024-02-14T05:49:43;96732.75;;;3.22;80.52
31357;BME280;60001;48.404;11.738;2024-02-14T05:51:14;96774.97;;;3.46;80.24
31357;BME280;60001;48.404;11.738;2024-02-14T05:52:46;96773.41;;;3.51;79.76
31357;BME280;60001;48.404;11.738;2024-02-14T05:54:17;96765.97;;;3.48;79.87
31357;BME280;60001;48.404;11.738;2024-02-14T05:55:48;96772.19;;;3.54;79.59
31357;BME280;60001;48.404;11.738;2024-02-14T05:57:19;96769.78;;;3.52;79.94
31357;BME280;60001;48.404;11.738;2024-02-14T05:58:52;96780.03;;;3.54;79.67
31357;BME280;60001;48.404;11.738;2024-02-14T06:00:23;96772.84;;;3.56;79.76
31357;BME280;60001;48.404;11.738;2024-02-14T06:01:55;96777.44;;;3.61;79.93
31357;BME280;60001;48.404;11.738;2024-02-14T06:03:26;96782.06;;;3.58;79.35
31357;BME280;60001;48.404;11.738;2024-02-14T06:04:58;96785.47;;;3.59;79.65
31357;BME280;60001;48.404;11.738;2024-02-14T06:06:29;96787.88;;;3.61;80.18
31357;BME280;60001;48.404;11.738;2024-02-14T06:08:01;96795.53;;;3.55;79.09
31357;BME280;60001;48.404;11.738;2024-02-14T06:09:33;96794.13;;;3.60;79.28
31357;BME280;60001;48.404;11.738;2024-02-14T06:11:05;96793.06;;;3.47;79.55
31357;BME280;60001;48.404;11.738;2024-02-14T06:12:36;96799.78;;;3.63;80.21
31357;BME280;60001;48.404;11.738;2024-02-14T06:14:09;96793.53;;;3.64;80.32
31357;BME280;60001;48.404;11.738;2024-02-14T06:15:41;96790.72;;;3.66;79.27
31357;BME280;60001;48.404;11.738;2024-02-14T06:17:12;96790.72;;;3.59;79.15
31357;BME280;60001;48.404;11.738;2024-02-14T06:18:45;96799.72;;;3.50;78.53
31357;BME280;60001;48.404;11.738;2024-02-14T06:20:17;96795.91;;;3.52;78.75
31357;BME280;60001;48.404;11.738;2024-02-14T06:21:47;96792.75;;;3.64;78.16
31357;BME280;60001;48.404;11.738;2024-02-14T06:23:19;96792.34;;;3.67;78.35
31357;BME280;60001;48.404;11.738;2024-02-14T06:24:51;96795.34;;;3.64;78.86
31357;BME280;60001;48.404;11.738;2024-02-14T06:26:22;96800.94;;;3.61;79.15
31357;BME280;60001;48.404;11.738;2024-02-14T06:27:54;96796.97;;;3.65;78.37
31357;BME280;60001;48.404;11.738;2024-02-14T06:29:26;96807.38;;;3.58;79.90
31357;BME280;60001;48.404;11.738;2024-02-14T06:30:58;96807.19;;;3.60;79.62
31357;BME280;60001;48.404;11.738;2024-02-14T06:32:29;96811.84;;;3.71;79.27
31357;BME280;60001;48.404;11.738;2024-02-14T06:34:01;96807.00;;;3.68;79.21
31357;BME280;60001;48.404;11.738;2024-02-14T06:35:32;96810.63;;;3.67;79.85
31357;BME280;60001;48.404;11.738;2024-02-14T06:37:04;96813.66;;;3.70;80.20
31357;BME280;60001;48.404;11.738;2024-02-14T06:38:34;96818.69;;;3.72;79.92
31357;BME280;60001;48.404;11.738;2024-02-14T06:40:07;96824.13;;;3.77;79.33
31357;BME280;60001;48.404;11.738;2024-02-14T06:41:39;96817.53;;;3.88;79.18
31357;BME280;60001;48.404;11.738;2024-02-14T06:43:11;96815.13;;;3.86;79.82
31357;BME280;60001;48.404;11.738;2024-02-14T06:44:44;96815.34;;;3.91;79.77
31357;BME280;60001;48.404;11.738;2024-02-14T06:46:16;96819.75;;;3.91;79.79
31357;BME280;60001;48.404;11.738;2024-02-14T06:47:47;96814.50;;;3.84;79.30
31357;BME280;60001;48.404;11.738;2024-02-14T06:49:18;96813.28;;;3.80;79.08
31357;BME280;60001;48.404;11.738;2024-02-14T06:50:49;96820.13;;;3.88;79.92
31357;BME280;60001;48.404;11.738;2024-02-14T06:52:21;96814.50;;;3.84;80.05
31357;BME280;60001;48.404;11.738;2024-02-14T06:53:52;96818.97;;;3.90;78.02
31357;BME280;60001;48.404;11.738;2024-02-14T06:55:24;96806.50;;;3.92;78.24
31357;BME280;60001;48.404;11.738;2024-02-14T06:56:55;96816.13;;;3.92;78.64
31357;BME280;60001;48.404;11.738;2024-02-14T06:58:26;96811.28;;;3.89;79.08
31357;BME280;60001;48.404;11.738;2024-02-14T06:59:59;96810.94;;;3.98;77.23
31357;BME280;60001;48.404;11.738;2024-02-14T07:01:30;96810.75;;;4.06;76.16
31357;BME280;60001;48.404;11.738;2024-02-14T07:03:01;96808.16;;;4.13;75.60
31357;BME280;60001;48.404;11.738;2024-02-14T07:04:34;96772.31;;;3.94;75.46
31357;BME280;60001;48.404;11.738;2024-02-14T07:06:05;96813.78;;;4.17;75.09
31357;BME280;60001;48.404;11.738;2024-02-14T07:07:36;96810.97;;;4.11;75.52
31357;BME280;60001;48.404;11.738;2024-02-14T07:09:08;96810.56;;;4.15;76.08
31357;BME280;60001;48.404;11.738;2024-02-14T07:10:43;96814.41;;;4.19;74.45
31357;BME280;60001;48.404;11.738;2024-02-14T07:12:14;96813.00;;;4.29;74.10
31357;BME280;60001;48.404;11.738;2024-02-14T07:13:45;96802.16;;;4.32;74.58
31357;BME280;60001;48.404;11.738;2024-02-14T07:15:17;96818.03;;;4.24;74.98
31357;BME280;60001;48.404;11.738;2024-02-14T07:16:50;96820.19;;;4.07;76.33
31357;BME280;60001;48.404;11.738;2024-02-14T07:18:21;96831.09;;;4.18;77.33
31357;BME280;60001;48.404;11.738;2024-02-14T07:19:53;96824.22;;;4.17;76.72
31357;BME280;60001;48.404;11.738;2024-02-14T07:21:24;96838.94;;;4.18;75.71
31357;BME280;60001;48.404;11.738;2024-02-14T07:22:55;96832.72;;;4.32;74.59
31357;BME280;60001;48.404;11.738;2024-02-14T07:24:27;96841.94;;;4.28;74.82
31357;BME280;60001;48.404;11.738;2024-02-14T07:26:00;96832.06;;;4.17;76.09
31357;BME280;60001;48.404;11.738;2024-02-14T07:27:32;96845.38;;;4.28;75.79
31357;BME280;60001;48.404;11.738;2024-02-14T07:29:04;96850.19;;;4.25;76.23
31357;BME280;60001;48.404;11.738;2024-02-14T07:30:37;96848.81;;;4.35;76.62
31357;BME280;60001;48.404;11.738;2024-02-14T07:32:08;96850.03;;;4.39;75.45
31357;BME280;60001;48.404;11.738;2024-02-14T07:33:39;96860.06;;;4.43;75.75
31357;BME280;60001;48.404;11.738;2024-02-14T07:35:11;96852.81;;;4.38;75.83
31357;BME280;60001;48.404;11.738;2024-02-14T07:36:43;96852.41;;;4.34;76.10
31357;BME280;60001;48.404;11.738;2024-02-14T07:38:16;96858.06;;;4.45;76.36
31357;BME280;60001;48.404;11.738;2024-02-14T07:39:48;96854.47;;;4.46;75.88
31357;BME280;60001;48.404;11.738;2024-02-14T07:41:19;96859.28;;;4.49;76.62
31357;BME280;60001;48.404;11.738;2024-02-14T07:42:51;96853.63;;;4.52;76.50
31357;BME280;60001;48.404;11.738;2024-02-14T07:44:23;96861.31;;;4.60;76.39
31357;BME280;60001;48.404;11.738;2024-02-14T07:45:56;96863.72;;;4.55;74.60
31357;BME280;60001;48.404;11.738;2024-02-14T07:47:27;96856.69;;;4.68;74.91
31357;BME280;60001;48.404;11.738;2024-02-14T07:49:01;96857.88;;;4.73;74.53
31357;BME280;60001;48.404;11.738;2024-02-14T07:50:32;96856.88;;;4.47;74.44
31357;BME280;60001;48.404;11.738;2024-02-14T07:52:04;96859.31;;;4.82;73.46
31357;BME280;60001;48.404;11.738;2024-02-14T07:53:35;96857.72;;;4.94;72.29
31357;BME280;60001;48.404;11.738;2024-02-14T07:55:07;96857.72;;;4.87;73.32
31357;BME280;60001;48.404;11.738;2024-02-14T07:56:41;96863.13;;;4.99;73.24
31357;BME280;60001;48.404;11.738;2024-02-14T07:58:13;96864.13;;;5.11;72.97
31357;BME280;60001;48.404;11.738;2024-02-14T07:59:44;96863.09;;;5.19;72.61
31357;BME280;60001;48.404;11.738;2024-02-14T08:01:17;96865.34;;;5.29;71.36
31357;BME280;60001;48.404;11.738;2024-02-14T08:02:49;96859.69;;;5.25;70.93
31357;BME280;60001;48.404;11.738;2024-02-14T08:04:19;96861.06;;;5.28;71.08
31357;BME280;60001;48.404;11.738;2024-02-14T08:05:51;96842.75;;;5.14;70.93
31357;BME280;60001;48.404;11.738;2024-02-14T08:07:22;96862.50;;;5.30;70.63